SULS

Details ICAO SULS (PDP)
Name CAPITAN CORBETA C A CURBELO INTL
Region Uruguay
Timezone America/Montevideo (UTC-3.0)
Plans Departing 33
Arriving 51
Stats Elevation 95 ft / 29 m (AMSL)
Location -34.857160° -55.097687°
Runways 2
Magnetic Variation 11.633° W
Sunrise 2018-06-18 10:48:23 UTC / 2018-06-18 07:48:23 Local
Sunset 2018-06-18 20:37:15 UTC / 2018-06-18 17:37:15 Local
Advertisement - Login to hide

Runways

ID Width Length Bearing (true) Bearing (mag) Surface Threshold Offset Overrun Length
01 125 ft / 38 m 5,263 ft / 1,604 m 357.91° 9.54° Asphalt 0 ft / 0 m 0 ft / 0 m
08 148 ft / 45 m 6,991 ft / 2,131 m 72.39° 84.02° Asphalt 0 ft / 0 m 0 ft / 0 m
19 125 ft / 38 m 5,263 ft / 1,604 m 177.91° 189.54° Asphalt 0 ft / 0 m 0 ft / 0 m
26 148 ft / 45 m 6,991 ft / 2,131 m 252.37° 264.00° Asphalt 0 ft / 0 m 0 ft / 0 m

Map

Weather


0- 5 10 15 20 25 30 35+ Temperature / ° C

Clouds and Precipitation
Forecast for 2018-06-18 12:00 UTC. Updated 5 hours ago

Ground ~20,000 ft ~40,000 ft Winds

METAR

SULS 181400Z 32010KT CAVOK 13/06 Q1028

TAF

TAF SULS 181130Z 1812/1912 35010KT CAVOK TX16/1818Z TN05/1910Z

Frequencies

Tower 122.10 MHz A/G
Tower 118.30 MHz TWR
Warning: Do not use this data for real-world aviation or navigation. No guarantee of current accuracy is given.